sensor_id;sensor_type;location;lat;lon;timestamp;temperature;humidity
25906;DHT22;13713;52.552;13.204;2023-12-20T00:00:47;16.70;96.40
25906;DHT22;13713;52.552;13.204;2023-12-20T00:03:13;16.70;96.30
25906;DHT22;13713;52.552;13.204;2023-12-20T00:05:39;16.70;96.40
25906;DHT22;13713;52.552;13.204;2023-12-20T00:08:06;16.70;96.40
25906;DHT22;13713;52.552;13.204;2023-12-20T00:10:32;16.70;96.30
25906;DHT22;13713;52.552;13.204;2023-12-20T00:12:57;16.70;96.50
25906;DHT22;13713;52.552;13.204;2023-12-20T00:15:23;16.70;96.40
25906;DHT22;13713;52.552;13.204;2023-12-20T00:17:49;16.60;96.30
25906;DHT22;13713;52.552;13.204;2023-12-20T00:20:14;16.60;96.40
25906;DHT22;13713;52.552;13.204;2023-12-20T00:22:40;16.60;96.40
25906;DHT22;13713;52.552;13.204;2023-12-20T00:25:07;16.60;96.40
25906;DHT22;13713;52.552;13.204;2023-12-20T00:27:32;16.60;96.40
25906;DHT22;13713;52.552;13.204;2023-12-20T00:29:58;16.60;96.20
25906;DHT22;13713;52.552;13.204;2023-12-20T00:32:23;16.60;96.20
25906;DHT22;13713;52.552;13.204;2023-12-20T00:34:49;16.50;96.20
25906;DHT22;13713;52.552;13.204;2023-12-20T00:37:15;16.60;96.20
25906;DHT22;13713;52.552;13.204;2023-12-20T00:39:42;16.60;96.10
25906;DHT22;13713;52.552;13.204;2023-12-20T00:42:07;16.60;96.40
25906;DHT22;13713;52.552;13.204;2023-12-20T00:44:33;16.60;96.20
25906;DHT22;13713;52.552;13.204;2023-12-20T00:46:59;16.60;96.30
25906;DHT22;13713;52.552;13.204;2023-12-20T00:49:24;16.60;96.20
25906;DHT22;13713;52.552;13.204;2023-12-20T00:51:50;16.60;96.30
25906;DHT22;13713;52.552;13.204;2023-12-20T00:54:18;16.50;96.20
25906;DHT22;13713;52.552;13.204;2023-12-20T00:56:43;16.50;96.60
25906;DHT22;13713;52.552;13.204;2023-12-20T00:59:09;16.50;96.20
25906;DHT22;13713;52.552;13.204;2023-12-20T01:01:35;16.50;96.20
25906;DHT22;13713;52.552;13.204;2023-12-20T01:04:00;16.50;96.20
25906;DHT22;13713;52.552;13.204;2023-12-20T01:06:26;16.50;96.00
25906;DHT22;13713;52.552;13.204;2023-12-20T01:08:52;16.50;96.20
25906;DHT22;13713;52.552;13.204;2023-12-20T01:11:17;16.50;96.10
25906;DHT22;13713;52.552;13.204;2023-12-20T01:13:43;16.50;96.20
25906;DHT22;13713;52.552;13.204;2023-12-20T01:16:12;16.50;96.20
25906;DHT22;13713;52.552;13.204;2023-12-20T01:18:38;16.50;96.30
25906;DHT22;13713;52.552;13.204;2023-12-20T01:21:04;16.50;96.20
25906;DHT22;13713;52.552;13.204;2023-12-20T01:23:31;16.50;96.30
25906;DHT22;13713;52.552;13.204;2023-12-20T01:25:56;16.50;96.10
25906;DHT22;13713;52.552;13.204;2023-12-20T01:28:22;16.40;96.30
25906;DHT22;13713;52.552;13.204;2023-12-20T01:30:48;16.40;96.60
25906;DHT22;13713;52.552;13.204;2023-12-20T01:33:13;16.50;96.00
25906;DHT22;13713;52.552;13.204;2023-12-20T01:35:39;16.40;96.20
25906;DHT22;13713;52.552;13.204;2023-12-20T01:38:05;16.40;96.20
25906;DHT22;13713;52.552;13.204;2023-12-20T01:40:30;16.40;96.10
25906;DHT22;13713;52.552;13.204;2023-12-20T01:43:07;16.40;96.00
25906;DHT22;13713;52.552;13.204;2023-12-20T01:45:34;16.40;96.00
25906;DHT22;13713;52.552;13.204;2023-12-20T01:48:00;16.40;96.00
25906;DHT22;13713;52.552;13.204;2023-12-20T01:50:28;16.40;96.10
25906;DHT22;13713;52.552;13.204;2023-12-20T01:52:55;16.40;96.10
25906;DHT22;13713;52.552;13.204;2023-12-20T01:55:24;16.40;96.00
25906;DHT22;13713;52.552;13.204;2023-12-20T01:57:50;16.40;96.10
25906;DHT22;13713;52.552;13.204;2023-12-20T02:00:17;16.30;96.10
25906;DHT22;13713;52.552;13.204;2023-12-20T02:02:44;16.40;96.00
25906;DHT22;13713;52.552;13.204;2023-12-20T02:05:11;16.30;95.90
25906;DHT22;13713;52.552;13.204;2023-12-20T02:07:37;16.30;95.90
25906;DHT22;13713;52.552;13.204;2023-12-20T02:10:03;16.30;95.80
25906;DHT22;13713;52.552;13.204;2023-12-20T02:12:31;16.30;95.90
25906;DHT22;13713;52.552;13.204;2023-12-20T02:14:57;16.30;95.80
25906;DHT22;13713;52.552;13.204;2023-12-20T02:17:23;16.30;96.10
25906;DHT22;13713;52.552;13.204;2023-12-20T02:19:49;16.30;96.00
25906;DHT22;13713;52.552;13.204;2023-12-20T02:22:15;16.30;96.00
25906;DHT22;13713;52.552;13.204;2023-12-20T02:24:41;16.30;95.90
25906;DHT22;13713;52.552;13.204;2023-12-20T02:27:07;16.30;96.10
25906;DHT22;13713;52.552;13.204;2023-12-20T02:29:36;16.30;96.00
25906;DHT22;13713;52.552;13.204;2023-12-20T02:32:02;16.30;95.80
25906;DHT22;13713;52.552;13.204;2023-12-20T02:34:29;16.30;96.00
25906;DHT22;13713;52.552;13.204;2023-12-20T02:36:55;16.20;96.00
25906;DHT22;13713;52.552;13.204;2023-12-20T02:39:21;16.20;96.00
25906;DHT22;13713;52.552;13.204;2023-12-20T02:41:48;16.30;96.00
25906;DHT22;13713;52.552;13.204;2023-12-20T02:44:13;16.10;95.70
25906;DHT22;13713;52.552;13.204;2023-12-20T02:46:39;16.20;95.90
25906;DHT22;13713;52.552;13.204;2023-12-20T02:49:06;16.30;96.00
25906;DHT22;13713;52.552;13.204;2023-12-20T02:51:31;16.20;95.90
25906;DHT22;13713;52.552;13.204;2023-12-20T02:53:57;16.20;95.80
25906;DHT22;13713;52.552;13.204;2023-12-20T02:56:23;16.20;95.80
25906;DHT22;13713;52.552;13.204;2023-12-20T02:58:49;16.20;96.00
25906;DHT22;13713;52.552;13.204;2023-12-20T03:01:14;16.20;95.80
25906;DHT22;13713;52.552;13.204;2023-12-20T03:03:40;16.20;95.90
25906;DHT22;13713;52.552;13.204;2023-12-20T03:06:06;16.20;95.90
25906;DHT22;13713;52.552;13.204;2023-12-20T03:08:31;16.10;95.70
25906;DHT22;13713;52.552;13.204;2023-12-20T03:10:59;16.20;95.80
25906;DHT22;13713;52.552;13.204;2023-12-20T03:13:25;16.10;95.70
25906;DHT22;13713;52.552;13.204;2023-12-20T03:15:50;16.20;95.80
25906;DHT22;13713;52.552;13.204;2023-12-20T03:18:16;16.20;95.80
25906;DHT22;13713;52.552;13.204;2023-12-20T03:20:43;16.10;95.70
25906;DHT22;13713;52.552;13.204;2023-12-20T03:23:09;16.10;95.70
25906;DHT22;13713;52.552;13.204;2023-12-20T03:25:34;16.10;95.70
25906;DHT22;13713;52.552;13.204;2023-12-20T03:28:00;16.10;95.60
25906;DHT22;13713;52.552;13.204;2023-12-20T03:30:26;16.10;95.60
25906;DHT22;13713;52.552;13.204;2023-12-20T03:32:51;16.10;95.70
25906;DHT22;13713;52.552;13.204;2023-12-20T03:35:17;16.10;95.60
25906;DHT22;13713;52.552;13.204;2023-12-20T03:37:43;16.10;95.60
25906;DHT22;13713;52.552;13.204;2023-12-20T03:40:09;16.10;95.70
25906;DHT22;13713;52.552;13.204;2023-12-20T03:42:34;16.10;95.70
25906;DHT22;13713;52.552;13.204;2023-12-20T03:45:00;16.10;95.50
25906;DHT22;13713;52.552;13.204;2023-12-20T03:47:26;16.10;95.50
25906;DHT22;13713;52.552;13.204;2023-12-20T03:49:52;16.10;95.60
25906;DHT22;13713;52.552;13.204;2023-12-20T03:52:18;16.10;95.50
25906;DHT22;13713;52.552;13.204;2023-12-20T03:54:43;16.10;95.60
25906;DHT22;13713;52.552;13.204;2023-12-20T03:57:09;16.10;95.40
25906;DHT22;13713;52.552;13.204;2023-12-20T03:59:38;16.10;95.30
25906;DHT22;13713;52.552;13.204;2023-12-20T04:02:04;16.00;95.40
25906;DHT22;13713;52.552;13.204;2023-12-20T04:04:30;15.90;95.50
25906;DHT22;13713;52.552;13.204;2023-12-20T04:06:55;16.00;95.50
25906;DHT22;13713;52.552;13.204;2023-12-20T04:09:21;16.00;95.60
25906;DHT22;13713;52.552;13.204;2023-12-20T04:11:47;16.00;95.60
25906;DHT22;13713;52.552;13.204;2023-12-20T04:14:12;16.00;95.80
25906;DHT22;13713;52.552;13.204;2023-12-20T04:16:38;16.00;95.80
25906;DHT22;13713;52.552;13.204;2023-12-20T04:19:04;16.10;95.80
25906;DHT22;13713;52.552;13.204;2023-12-20T04:21:30;16.10;95.50
25906;DHT22;13713;52.552;13.204;2023-12-20T04:23:56;16.20;95.50
25906;DHT22;13713;52.552;13.204;2023-12-20T04:26:22;16.30;95.40
25906;DHT22;13713;52.552;13.204;2023-12-20T04:28:47;16.40;95.10
25906;DHT22;13713;52.552;13.204;2023-12-20T04:31:13;16.40;94.70
25906;DHT22;13713;52.552;13.204;2023-12-20T04:33:39;16.50;94.30
25906;DHT22;13713;52.552;13.204;2023-12-20T04:36:04;16.50;94.10
25906;DHT22;13713;52.552;13.204;2023-12-20T04:38:30;16.60;93.90
25906;DHT22;13713;52.552;13.204;2023-12-20T04:40:56;16.70;93.70
25906;DHT22;13713;52.552;13.204;2023-12-20T04:43:22;16.70;93.40
25906;DHT22;13713;52.552;13.204;2023-12-20T04:45:48;16.80;93.20
25906;DHT22;13713;52.552;13.204;2023-12-20T04:48:13;16.90;93.00
25906;DHT22;13713;52.552;13.204;2023-12-20T04:50:39;16.90;92.90
25906;DHT22;13713;52.552;13.204;2023-12-20T04:53:05;17.00;92.70
25906;DHT22;13713;52.552;13.204;2023-12-20T04:55:30;17.00;92.50
25906;DHT22;13713;52.552;13.204;2023-12-20T04:57:56;17.10;92.30
25906;DHT22;13713;52.552;13.204;2023-12-20T05:00:22;17.10;92.10
25906;DHT22;13713;52.552;13.204;2023-12-20T05:02:47;17.20;92.00
25906;DHT22;13713;52.552;13.204;2023-12-20T05:05:13;17.20;91.90
25906;DHT22;13713;52.552;13.204;2023-12-20T05:07:40;17.20;92.10
25906;DHT22;13713;52.552;13.204;2023-12-20T05:10:06;17.30;91.60
25906;DHT22;13713;52.552;13.204;2023-12-20T05:12:34;17.30;91.50
25906;DHT22;13713;52.552;13.204;2023-12-20T05:15:00;17.40;91.40
25906;DHT22;13713;52.552;13.204;2023-12-20T05:17:25;17.40;91.20
25906;DHT22;13713;52.552;13.204;2023-12-20T05:19:51;17.40;91.20
25906;DHT22;13713;52.552;13.204;2023-12-20T05:22:17;17.50;91.00
25906;DHT22;13713;52.552;13.204;2023-12-20T05:24:43;17.50;90.90
25906;DHT22;13713;52.552;13.204;2023-12-20T05:27:09;17.50;90.90
25906;DHT22;13713;52.552;13.204;2023-12-20T05:29:35;17.60;90.70
25906;DHT22;13713;52.552;13.204;2023-12-20T05:32:01;17.60;90.60
25906;DHT22;13713;52.552;13.204;2023-12-20T05:34:26;17.60;90.50
25906;DHT22;13713;52.552;13.204;2023-12-20T05:36:52;17.70;90.60
25906;DHT22;13713;52.552;13.204;2023-12-20T05:39:18;17.70;90.20
25906;DHT22;13713;52.552;13.204;2023-12-20T05:41:43;17.70;90.30
25906;DHT22;13713;52.552;13.204;2023-12-20T05:44:09;17.80;90.00
25906;DHT22;13713;52.552;13.204;2023-12-20T05:46:35;17.80;89.80
25906;DHT22;13713;52.552;13.204;2023-12-20T05:49:01;17.90;89.40
25906;DHT22;13713;52.552;13.204;2023-12-20T05:51:28;17.90;89.10
25906;DHT22;13713;52.552;13.204;2023-12-20T05:53:53;18.00;89.10
25906;DHT22;13713;52.552;13.204;2023-12-20T05:56:19;18.10;89.60
25906;DHT22;13713;52.552;13.204;2023-12-20T05:58:45;18.10;89.70
25906;DHT22;13713;52.552;13.204;2023-12-20T06:01:10;18.20;89.90
25906;DHT22;13713;52.552;13.204;2023-12-20T06:03:36;18.30;89.50
25906;DHT22;13713;52.552;13.204;2023-12-20T06:06:06;18.30;88.80
25906;DHT22;13713;52.552;13.204;2023-12-20T06:08:32;18.40;88.60
25906;DHT22;13713;52.552;13.204;2023-12-20T06:10:58;18.40;88.60
25906;DHT22;13713;52.552;13.204;2023-12-20T06:13:23;18.50;88.70
25906;DHT22;13713;52.552;13.204;2023-12-20T06:15:49;18.50;88.50
25906;DHT22;13713;52.552;13.204;2023-12-20T06:18:15;18.60;88.10
25906;DHT22;13713;52.552;13.204;2023-12-20T06:20:40;18.60;88.00
25906;DHT22;13713;52.552;13.204;2023-12-20T06:23:06;18.70;88.10
25906;DHT22;13713;52.552;13.204;2023-12-20T06:25:33;18.70;88.20
25906;DHT22;13713;52.552;13.204;2023-12-20T06:27:58;18.80;88.30
25906;DHT22;13713;52.552;13.204;2023-12-20T06:30:24;18.80;88.10
25906;DHT22;13713;52.552;13.204;2023-12-20T06:32:51;18.80;88.40
25906;DHT22;13713;52.552;13.204;2023-12-20T06:35:16;18.80;88.60
25906;DHT22;13713;52.552;13.204;2023-12-20T06:37:42;18.90;88.30
25906;DHT22;13713;52.552;13.204;2023-12-20T06:40:09;19.00;88.40
25906;DHT22;13713;52.552;13.204;2023-12-20T06:42:35;19.00;87.50
25906;DHT22;13713;52.552;13.204;2023-12-20T06:45:01;19.00;87.70
25906;DHT22;13713;52.552;13.204;2023-12-20T06:47:27;19.10;87.40
25906;DHT22;13713;52.552;13.204;2023-12-20T06:49:53;19.10;87.00
25906;DHT22;13713;52.552;13.204;2023-12-20T06:52:18;19.10;86.50
25906;DHT22;13713;52.552;13.204;2023-12-20T06:54:44;19.20;86.50
25906;DHT22;13713;52.552;13.204;2023-12-20T06:57:09;19.20;85.70
25906;DHT22;13713;52.552;13.204;2023-12-20T06:59:41;19.30;85.00
25906;DHT22;13713;52.552;13.204;2023-12-20T07:02:08;19.30;85.00
25906;DHT22;13713;52.552;13.204;2023-12-20T07:04:35;19.30;84.50
25906;DHT22;13713;52.552;13.204;2023-12-20T07:07:04;19.40;84.50
25906;DHT22;13713;52.552;13.204;2023-12-20T07:09:29;19.40;84.00
25906;DHT22;13713;52.552;13.204;2023-12-20T07:11:55;19.50;83.70
25906;DHT22;13713;52.552;13.204;2023-12-20T07:14:21;19.50;83.50
25906;DHT22;13713;52.552;13.204;2023-12-20T07:16:47;19.60;83.60
25906;DHT22;13713;52.552;13.204;2023-12-20T07:19:12;19.60;83.80
25906;DHT22;13713;52.552;13.204;2023-12-20T07:21:38;19.70;83.70
25906;DHT22;13713;52.552;13.204;2023-12-20T07:24:04;19.70;84.10
25906;DHT22;13713;52.552;13.204;2023-12-20T07:26:30;19.70;83.80
25906;DHT22;13713;52.552;13.204;2023-12-20T07:28:55;19.70;83.60
25906;DHT22;13713;52.552;13.204;2023-12-20T07:31:21;19.70;83.20
25906;DHT22;13713;52.552;13.204;2023-12-20T07:33:47;19.80;82.10
25906;DHT22;13713;52.552;13.204;2023-12-20T07:36:13;19.80;82.30
25906;DHT22;13713;52.552;13.204;2023-12-20T07:38:38;19.80;82.70
25906;DHT22;13713;52.552;13.204;2023-12-20T07:41:04;19.80;83.50
25906;DHT22;13713;52.552;13.204;2023-12-20T07:43:30;19.90;83.20
25906;DHT22;13713;52.552;13.204;2023-12-20T07:45:56;19.90;83.30
25906;DHT22;13713;52.552;13.204;2023-12-20T07:48:21;19.90;82.60
25906;DHT22;13713;52.552;13.204;2023-12-20T07:50:47;20.00;83.80
25906;DHT22;13713;52.552;13.204;2023-12-20T07:53:13;20.00;83.00
25906;DHT22;13713;52.552;13.204;2023-12-20T07:55:39;20.00;82.00
25906;DHT22;13713;52.552;13.204;2023-12-20T07:58:04;20.00;81.90
25906;DHT22;13713;52.552;13.204;2023-12-20T08:00:30;20.00;82.00
25906;DHT22;13713;52.552;13.204;2023-12-20T08:02:56;20.10;82.30
25906;DHT22;13713;52.552;13.204;2023-12-20T08:05:21;20.10;82.20
25906;DHT22;13713;52.552;13.204;2023-12-20T08:07:47;20.10;82.30
25906;DHT22;13713;52.552;13.204;2023-12-20T08:10:13;20.10;82.00
25906;DHT22;13713;52.552;13.204;2023-12-20T08:12:39;20.20;82.20
25906;DHT22;13713;52.552;13.204;2023-12-20T08:15:05;20.20;81.90
25906;DHT22;13713;52.552;13.204;2023-12-20T08:17:31;20.20;82.50
25906;DHT22;13713;52.552;13.204;2023-12-20T08:19:57;20.30;82.30
25906;DHT22;13713;52.552;13.204;2023-12-20T08:22:23;20.30;82.80
25906;DHT22;13713;52.552;13.204;2023-12-20T08:24:49;20.30;82.70
25906;DHT22;13713;52.552;13.204;2023-12-20T08:27:14;20.30;82.50
25906;DHT22;13713;52.552;13.204;2023-12-20T08:29:40;20.30;82.50
25906;DHT22;13713;52.552;13.204;2023-12-20T08:32:06;20.30;82.30
25906;DHT22;13713;52.552;13.204;2023-12-20T08:34:31;20.30;82.40
25906;DHT22;13713;52.552;13.204;2023-12-20T08:36:57;20.20;83.20
25906;DHT22;13713;52.552;13.204;2023-12-20T08:39:23;20.10;83.20
25906;DHT22;13713;52.552;13.204;2023-12-20T08:41:48;20.00;84.20
25906;DHT22;13713;52.552;13.204;2023-12-20T08:44:14;20.00;84.40
25906;DHT22;13713;52.552;13.204;2023-12-20T08:46:40;20.00;86.30
25906;DHT22;13713;52.552;13.204;2023-12-20T08:49:05;20.00;86.80
25906;DHT22;13713;52.552;13.204;2023-12-20T08:51:31;20.00;85.90
25906;DHT22;13713;52.552;13.204;2023-12-20T08:53:57;20.10;85.90
25906;DHT22;13713;52.552;13.204;2023-12-20T08:56:22;20.10;85.90
25906;DHT22;13713;52.552;13.204;2023-12-20T08:58:48;20.10;85.70
25906;DHT22;13713;52.552;13.204;2023-12-20T09:01:14;20.20;85.80
25906;DHT22;13713;52.552;13.204;2023-12-20T09:03:40;20.20;86.10
25906;DHT22;13713;52.552;13.204;2023-12-20T09:06:06;20.20;85.70
25906;DHT22;13713;52.552;13.204;2023-12-20T09:08:32;20.30;85.50
25906;DHT22;13713;52.552;13.204;2023-12-20T09:10:57;20.30;85.70
25906;DHT22;13713;52.552;13.204;2023-12-20T09:13:23;20.30;85.60
25906;DHT22;13713;52.552;13.204;2023-12-20T09:15:56;20.30;85.90
25906;DHT22;13713;52.552;13.204;2023-12-20T09:18:22;20.40;85.70
25906;DHT22;13713;52.552;13.204;2023-12-20T09:20:48;20.40;86.80
25906;DHT22;13713;52.552;13.204;2023-12-20T09:23:14;20.30;86.30
25906;DHT22;13713;52.552;13.204;2023-12-20T09:25:40;20.40;86.30
25906;DHT22;13713;52.552;13.204;2023-12-20T09:28:06;20.40;86.80
25906;DHT22;13713;52.552;13.204;2023-12-20T09:30:31;20.40;86.60
25906;DHT22;13713;52.552;13.204;2023-12-20T09:32:57;20.30;86.40
25906;DHT22;13713;52.552;13.204;2023-12-20T09:35:23;20.20;87.20
25906;DHT22;13713;52.552;13.204;2023-12-20T09:37:49;20.10;87.60
25906;DHT22;13713;52.552;13.204;2023-12-20T09:40:17;20.20;88.40
25906;DHT22;13713;52.552;13.204;2023-12-20T09:42:56;20.00;88.40
25906;DHT22;13713;52.552;13.204;2023-12-20T09:45:22;20.00;88.90
25906;DHT22;13713;52.552;13.204;2023-12-20T09:47:49;20.00;89.20
25906;DHT22;13713;52.552;13.204;2023-12-20T09:50:17;19.90;89.80
25906;DHT22;13713;52.552;13.204;2023-12-20T09:52:43;19.90;89.70
25906;DHT22;13713;52.552;13.204;2023-12-20T09:55:10;19.90;90.20
25906;DHT22;13713;52.552;13.204;2023-12-20T09:57:35;19.90;90.30
25906;DHT22;13713;52.552;13.204;2023-12-20T10:00:01;19.90;90.00
25906;DHT22;13713;52.552;13.204;2023-12-20T10:02:40;20.00;90.00
25906;DHT22;13713;52.552;13.204;2023-12-20T10:05:08;20.10;89.90
25906;DHT22;13713;52.552;13.204;2023-12-20T10:07:37;20.10;90.00
25906;DHT22;13713;52.552;13.204;2023-12-20T10:10:03;20.20;89.70
25906;DHT22;13713;52.552;13.204;2023-12-20T10:12:29;20.30;89.40
25906;DHT22;13713;52.552;13.204;2023-12-20T10:14:56;20.30;89.70
25906;DHT22;13713;52.552;13.204;2023-12-20T10:17:23;20.40;89.70
25906;DHT22;13713;52.552;13.204;2023-12-20T10:19:49;20.30;90.00
25906;DHT22;13713;52.552;13.204;2023-12-20T10:22:15;20.40;89.30
25906;DHT22;13713;52.552;13.204;2023-12-20T10:24:40;20.40;89.40
25906;DHT22;13713;52.552;13.204;2023-12-20T10:27:08;20.50;89.60
25906;DHT22;13713;52.552;13.204;2023-12-20T10:29:37;20.50;89.30
25906;DHT22;13713;52.552;13.204;2023-12-20T10:32:25;20.50;90.00
25906;DHT22;13713;52.552;13.204;2023-12-20T10:34:52;20.40;90.00
25906;DHT22;13713;52.552;13.204;2023-12-20T10:37:18;20.40;90.10
25906;DHT22;13713;52.552;13.204;2023-12-20T10:39:51;20.30;90.30
25906;DHT22;13713;52.552;13.204;2023-12-20T10:42:21;20.30;90.50
25906;DHT22;13713;52.552;13.204;2023-12-20T10:44:47;20.20;90.70
25906;DHT22;13713;52.552;13.204;2023-12-20T10:47:14;20.20;90.80
25906;DHT22;13713;52.552;13.204;2023-12-20T10:49:40;20.20;90.80
25906;DHT22;13713;52.552;13.204;2023-12-20T10:52:07;20.10;90.80
25906;DHT22;13713;52.552;13.204;2023-12-20T10:54:34;20.10;91.40
25906;DHT22;13713;52.552;13.204;2023-12-20T10:57:00;20.10;90.90
25906;DHT22;13713;52.552;13.204;2023-12-20T10:59:29;20.10;90.80
25906;DHT22;13713;52.552;13.204;2023-12-20T11:01:59;20.00;91.00
25906;DHT22;13713;52.552;13.204;2023-12-20T11:04:40;20.10;91.00
25906;DHT22;13713;52.552;13.204;2023-12-20T11:10:25;20.20;90.60
25906;DHT22;13713;52.552;13.204;2023-12-20T11:13:03;20.30;90.40
25906;DHT22;13713;52.552;13.204;2023-12-20T11:15:37;20.40;90.10
25906;DHT22;13713;52.552;13.204;2023-12-20T11:18:04;20.50;90.00
25906;DHT22;13713;52.552;13.204;2023-12-20T11:20:38;20.50;89.80
25906;DHT22;13713;52.552;13.204;2023-12-20T11:23:04;20.60;89.90
25906;DHT22;13713;52.552;13.204;2023-12-20T11:25:30;20.60;89.90
25906;DHT22;13713;52.552;13.204;2023-12-20T11:28:09;20.70;89.70
25906;DHT22;13713;52.552;13.204;2023-12-20T11:31:02;20.70;89.70
25906;DHT22;13713;52.552;13.204;2023-12-20T11:33:31;20.70;89.50
25906;DHT22;13713;52.552;13.204;2023-12-20T11:35:58;20.70;90.40
25906;DHT22;13713;52.552;13.204;2023-12-20T11:38:25;20.80;90.20
25906;DHT22;13713;52.552;13.204;2023-12-20T11:40:53;20.70;90.30
25906;DHT22;13713;52.552;13.204;2023-12-20T11:43:31;20.60;90.30
25906;DHT22;13713;52.552;13.204;2023-12-20T11:46:04;20.50;90.70
25906;DHT22;13713;52.552;13.204;2023-12-20T11:48:31;20.40;90.80
25906;DHT22;13713;52.552;13.204;2023-12-20T11:50:58;20.40;91.00
25906;DHT22;13713;52.552;13.204;2023-12-20T11:53:23;20.40;91.20
25906;DHT22;13713;52.552;13.204;2023-12-20T11:55:49;20.30;91.50
25906;DHT22;13713;52.552;13.204;2023-12-20T11:58:15;20.30;91.50
25906;DHT22;13713;52.552;13.204;2023-12-20T12:00:42;20.30;91.50
25906;DHT22;13713;52.552;13.204;2023-12-20T12:03:09;20.30;91.50
25906;DHT22;13713;52.552;13.204;2023-12-20T12:05:35;20.20;91.40
25906;DHT22;13713;52.552;13.204;2023-12-20T12:08:01;20.20;91.70
25906;DHT22;13713;52.552;13.204;2023-12-20T12:10:28;20.20;91.70
25906;DHT22;13713;52.552;13.204;2023-12-20T12:12:54;20.20;91.50
25906;DHT22;13713;52.552;13.204;2023-12-20T12:15:20;20.10;91.30
25906;DHT22;13713;52.552;13.204;2023-12-20T12:17:56;20.20;91.10
25906;DHT22;13713;52.552;13.204;2023-12-20T12:20:23;20.10;91.10
25906;DHT22;13713;52.552;13.204;2023-12-20T12:23:04;20.10;91.10
25906;DHT22;13713;52.552;13.204;2023-12-20T12:25:32;20.20;91.20
25906;DHT22;13713;52.552;13.204;2023-12-20T12:28:00;20.10;91.10
25906;DHT22;13713;52.552;13.204;2023-12-20T12:30:26;20.10;91.30
25906;DHT22;13713;52.552;13.204;2023-12-20T12:32:52;20.20;91.30
25906;DHT22;13713;52.552;13.204;2023-12-20T12:35:19;20.30;91.10
25906;DHT22;13713;52.552;13.204;2023-12-20T12:37:45;20.30;91.00
25906;DHT22;13713;52.552;13.204;2023-12-20T12:40:15;20.40;91.00
25906;DHT22;13713;52.552;13.204;2023-12-20T12:42:42;20.50;91.90
25906;DHT22;13713;52.552;13.204;2023-12-20T12:45:09;20.50;91.40
25906;DHT22;13713;52.552;13.204;2023-12-20T12:47:35;20.60;91.80
25906;DHT22;13713;52.552;13.204;2023-12-20T12:50:01;20.70;91.40
25906;DHT22;13713;52.552;13.204;2023-12-20T12:52:26;20.70;91.20
25906;DHT22;13713;52.552;13.204;2023-12-20T12:54:53;20.80;91.30
25906;DHT22;13713;52.552;13.204;2023-12-20T12:57:19;20.70;90.90
25906;DHT22;13713;52.552;13.204;2023-12-20T12:59:45;20.70;91.10
25906;DHT22;13713;52.552;13.204;2023-12-20T13:02:14;20.70;91.30
25906;DHT22;13713;52.552;13.204;2023-12-20T13:04:41;20.60;91.60
25906;DHT22;13713;52.552;13.204;2023-12-20T13:07:09;20.50;91.70
25906;DHT22;13713;52.552;13.204;2023-12-20T13:09:38;20.50;91.70
25906;DHT22;13713;52.552;13.204;2023-12-20T13:12:07;20.50;92.30
25906;DHT22;13713;52.552;13.204;2023-12-20T13:14:34;20.50;92.20
25906;DHT22;13713;52.552;13.204;2023-12-20T13:17:01;20.40;92.60
25906;DHT22;13713;52.552;13.204;2023-12-20T13:19:27;20.50;92.60
25906;DHT22;13713;52.552;13.204;2023-12-20T13:21:53;20.50;92.60
25906;DHT22;13713;52.552;13.204;2023-12-20T13:24:19;20.40;92.60
25906;DHT22;13713;52.552;13.204;2023-12-20T13:26:44;20.40;92.70
25906;DHT22;13713;52.552;13.204;2023-12-20T13:29:10;20.40;92.40
25906;DHT22;13713;52.552;13.204;2023-12-20T13:31:35;20.40;92.60
25906;DHT22;13713;52.552;13.204;2023-12-20T13:34:02;20.30;93.00
25906;DHT22;13713;52.552;13.204;2023-12-20T13:36:27;20.30;93.20
25906;DHT22;13713;52.552;13.204;2023-12-20T13:38:53;20.30;92.90
25906;DHT22;13713;52.552;13.204;2023-12-20T13:41:20;20.20;92.50
25906;DHT22;13713;52.552;13.204;2023-12-20T13:43:45;20.20;92.70
25906;DHT22;13713;52.552;13.204;2023-12-20T13:46:11;20.20;93.20
25906;DHT22;13713;52.552;13.204;2023-12-20T13:48:37;20.20;93.20
25906;DHT22;13713;52.552;13.204;2023-12-20T13:51:03;20.20;92.80
25906;DHT22;13713;52.552;13.204;2023-12-20T13:53:29;20.30;92.80
25906;DHT22;13713;52.552;13.204;2023-12-20T13:55:54;20.30;93.20
25906;DHT22;13713;52.552;13.204;2023-12-20T13:58:20;20.40;92.30
25906;DHT22;13713;52.552;13.204;2023-12-20T14:00:46;20.50;93.50
25906;DHT22;13713;52.552;13.204;2023-12-20T14:03:11;20.50;93.30
25906;DHT22;13713;52.552;13.204;2023-12-20T14:05:37;20.50;93.90
25906;DHT22;13713;52.552;13.204;2023-12-20T14:08:03;20.50;92.10
25906;DHT22;13713;52.552;13.204;2023-12-20T14:10:29;20.40;92.00
25906;DHT22;13713;52.552;13.204;2023-12-20T14:12:55;20.20;86.90
25906;DHT22;13713;52.552;13.204;2023-12-20T14:15:21;19.90;74.60
25906;DHT22;13713;52.552;13.204;2023-12-20T14:17:46;19.80;81.70
25906;DHT22;13713;52.552;13.204;2023-12-20T14:20:12;19.80;84.20
25906;DHT22;13713;52.552;13.204;2023-12-20T14:22:41;19.70;86.30
25906;DHT22;13713;52.552;13.204;2023-12-20T14:25:12;19.70;87.70
25906;DHT22;13713;52.552;13.204;2023-12-20T14:27:39;19.70;89.00
25906;DHT22;13713;52.552;13.204;2023-12-20T14:30:05;19.60;89.80
25906;DHT22;13713;52.552;13.204;2023-12-20T14:32:35;19.70;90.10
25906;DHT22;13713;52.552;13.204;2023-12-20T14:35:05;19.70;90.40
25906;DHT22;13713;52.552;13.204;2023-12-20T14:37:31;19.70;90.90
25906;DHT22;13713;52.552;13.204;2023-12-20T14:39:57;19.70;90.90
25906;DHT22;13713;52.552;13.204;2023-12-20T14:42:23;19.60;91.00
25906;DHT22;13713;52.552;13.204;2023-12-20T14:44:48;19.60;91.50
25906;DHT22;13713;52.552;13.204;2023-12-20T14:47:14;19.60;91.50
25906;DHT22;13713;52.552;13.204;2023-12-20T14:49:41;19.50;91.70
25906;DHT22;13713;52.552;13.204;2023-12-20T14:52:08;19.60;91.80
25906;DHT22;13713;52.552;13.204;2023-12-20T14:54:37;19.60;92.00
25906;DHT22;13713;52.552;13.204;2023-12-20T14:57:02;19.60;92.20
25906;DHT22;13713;52.552;13.204;2023-12-20T14:59:28;19.50;92.50
25906;DHT22;13713;52.552;13.204;2023-12-20T15:01:54;19.50;92.80
25906;DHT22;13713;52.552;13.204;2023-12-20T15:04:20;19.50;92.70
25906;DHT22;13713;52.552;13.204;2023-12-20T15:06:52;19.40;93.00
25906;DHT22;13713;52.552;13.204;2023-12-20T15:09:18;19.40;92.90
25906;DHT22;13713;52.552;13.204;2023-12-20T15:11:43;19.40;93.20
25906;DHT22;13713;52.552;13.204;2023-12-20T15:14:09;19.30;93.40